LWSK Airport Information

Runway Information
Runway 16 Length 8038 ft width 140 ft
Elevation 781 ft Threshold 0 ft Heading 165
Runway 34 Length 8038 ft Width 140 ft
Elevation 768 ft Threshold 0 ft Heading 345
Airport Frequencies
Type APP Name APP Frequency 120.3 MHZ
Type ATIS Name ATIS Frequency 130.125 MHZ
Type TWR Name TWR Frequency 118.5 MHZ
Airport Navaids
Type NDB Name Skopje Frequency 442 KHZ
Type VOR-DME Name Sinko Frequency 111450 KHZ
Type VOR-DME Name Skopje Frequency 112800 KHZ
Airport Weather Information & NOTAM
ADDS - METARS form results

(2232 UTC 01 June 2020)
Data provider http://aviationweather.gov/metar/data/
 
METAR text: LWSK 012230Z 05002KT 9999 FEW040 BKN070 14/10 Q1014 NOSIG
Conditions at: LWSK (SKOPJE/PETROVAC , MK) observed 2230 UTC 01 June 2020
Temperature: 14.0°C (57°F)
Dewpoint: 10.0°C (50°F) [RH = 77%]
Pressure (altimeter): 29.94 inches Hg (1014.0 mb)
Winds: from the NE (50 degrees) at 2 MPH (2 knots; 1.0 m/s)
Visibility: 6 or more miles (10+ km)
Ceiling: 7000 feet AGL
Clouds: few clouds at 4000 feet AGL
broken clouds at 7000 feet AGL
Weather: no significant weather observed at this time

METAR text: LWSK 012200Z 01002KT 9999 FEW045 BKN080 13/10 Q1014 NOSIG
Conditions at: LWSK (SKOPJE/PETROVAC , MK) observed 2200 UTC 01 June 2020
Temperature: 13.0°C (55°F)
Dewpoint: 10.0°C (50°F) [RH = 82%]
Pressure (altimeter): 29.94 inches Hg (1014.0 mb)
Winds: from the N (10 degrees) at 2 MPH (2 knots; 1.0 m/s)
Visibility: 6 or more miles (10+ km)
Ceiling: 8000 feet AGL
Clouds: few clouds at 4500 feet AGL
broken clouds at 8000 feet AGL
Weather: no significant weather observed at this time

Forecast for: LWSK (SKOPJE/PETROVAC , MK)
Text: TAF LWSK 012030Z 0121/0221 36008KT 9999 FEW040 BKN060
Forecast period: 2100 UTC 01 June 2020 to 2100 UTC 02 June 2020
Forecast type: FROM: standard forecast or significant change
Winds: from the N (360 degrees) at 9 MPH (8 knots; 4.1 m/s)
Visibility: 6 or more miles 10+ km)
Ceiling: 6000 feet AGL
Clouds: few clouds at 4000 feet AGL
broken clouds at 6000 feet AGL
Weather: no significant weather forecast for this period
Text: PROB30
Forecast period: 1200 to 1800 UTC 02 June 2020
Forecast type: TEMPORARY: The following changes expected for less than half the time period
Winds: from the NNE (20 degrees) at 23 MPH (20 knots; 10.3 m/s)
Visibility: missing
Ceiling: 4500 feet AGL
Clouds: few clouds at 3300 feet AGL
broken clouds at 4500 feet AGL
Weather: TSRA  (rain associated with thunderstorm(s))